Stolt Surf — ZCSR3 — position and weather

sailwx.info

Track history (hours):
 
Tides and Currents Weather Stations Pressure Air Temp Water Temp Dewpoint Dewpoint Depression Visibility Wind Speed Wind Dir Waves Ship Positions

Stolt Surf

Last reported at 2014-Oct-11 19:32 UTC. Time now 2014-Oct-20 11:22 UTC.
Position N 34°05' E 134°54'.
Warning: this ship's position is 8 days out of date.

Length 163 m; draft 9.6 m.

Type: Ship. MMSI: 319545000.

Date/timePositionNaut miles runAvg speedWind from/ knotsBaromVisibWave heightAir tempDewpointWater temp
2014-Oct-11 19:32N 34°05' E 134°54'1312.3
2014-Oct-11 18:28N 34°18' E 134°58'1314.1
2014-Oct-11 17:33N 34°28' E 135°08'1413.7
2014-Oct-11 16:33N 34°39' E 135°18'0 0.4
2014-Oct-11 15:33N 34°39' E 135°18'0 0.0
2014-Oct-11 14:27N 34°39' E 135°18'0 0.0
2014-Oct-11 13:21N 34°39' E 135°18'0 0.0
2014-Oct-11 12:27N 34°39' E 135°18'0 0.0
2014-Oct-11 11:33N 34°39' E 135°18'0 0.0
2014-Oct-11 10:33N 34°39' E 135°18'0 0.0
2014-Oct-11 09:15N 34°39' E 135°18'0 0.0
2014-Oct-11 08:27N 34°39' E 135°18'0 0.0
2014-Oct-11 07:21N 34°39' E 135°18'0 0.0
2014-Oct-11 05:33N 34°39' E 135°18'0 0.0
2014-Oct-11 04:33N 34°39' E 135°18'0 0.0
2014-Oct-11 03:33N 34°39' E 135°18'0 0.0
2014-Oct-11 02:33N 34°39' E 135°18'0 0.0
2014-Oct-11 01:33N 34°39' E 135°18'0 0.0
2014-Oct-11 00:33N 34°39' E 135°18'0 0.0
2014-Oct-10 23:27N 34°39' E 135°18'0 0.1
2014-Oct-10 22:33N 34°39' E 135°18'0 0.0
2014-Oct-10 21:33N 34°39' E 135°18'0 0.1
2014-Oct-10 20:33N 34°39' E 135°18'0 0.0
2014-Oct-10 19:33N 34°39' E 135°18'0 0.0
2014-Oct-10 18:33N 34°39' E 135°18'0 0.0
2014-Oct-10 17:33N 34°39' E 135°18'0 0.0
2014-Oct-10 16:33N 34°39' E 135°18'0 0.0
2014-Oct-10 15:33N 34°39' E 135°18'0 0.0
2014-Oct-10 14:27N 34°39' E 135°18'0 0.0
2014-Oct-10 13:33N 34°39' E 135°18'0 0.0
2014-Oct-10 12:33N 34°39' E 135°18'0 0.0
2014-Oct-10 11:21N 34°39' E 135°18'0 0.0
2014-Oct-10 10:33N 34°39' E 135°18'0 0.0
2014-Oct-10 09:27N 34°39' E 135°18'0 0.0
2014-Oct-10 08:33N 34°39' E 135°18'0 0.1
2014-Oct-10 07:09N 34°39' E 135°18'0 0.2
2014-Oct-10 06:33N 34°39' E 135°18'0 0.0
2014-Oct-10 05:27N 34°39' E 135°18'0 0.1
2014-Oct-10 04:27N 34°39' E 135°18'0 0.0
2014-Oct-10 03:33N 34°39' E 135°18'0 0.1
2014-Oct-10 02:33N 34°39' E 135°18'6 6.0
2014-Oct-10 01:33N 34°37' E 135°11'1 1.3
2014-Oct-10 00:27N 34°38' E 135°09'0 0.0
2014-Oct-09 23:27N 34°38' E 135°09'0 0.0
2014-Oct-09 22:33N 34°38' E 135°09'0 0.0
2014-Oct-09 21:21N 34°38' E 135°09'0 0.0
2014-Oct-09 20:27N 34°38' E 135°09'0 0.0
2014-Oct-09 19:15N 34°38' E 135°09'0 0.2
2014-Oct-09 18:27N 34°38' E 135°10'0 0.1
2014-Oct-09 17:33N 34°38' E 135°10'0 0.0
2014-Oct-09 16:33N 34°38' E 135°10'0 0.1
2014-Oct-09 15:33N 34°38' E 135°10'0 0.1
2014-Oct-09 14:33N 34°38' E 135°09'0 0.0
2014-Oct-09 13:27N 34°38' E 135°09'1 1.3
2014-Oct-09 12:34N 34°37' E 135°09'1312.7
2014-Oct-09 11:33N 34°25' E 135°04'1613.3
2014-Oct-09 10:23N 34°10' E 134°60'8 9.6
2014-Oct-09 09:33N 34°02' E 134°60'  
Track history (hours):
 
Tides and Currents Weather Stations Pressure Air Temp Water Temp Dewpoint Dewpoint Depression Visibility Wind Speed Wind Dir Waves Ship Positions

Stolt Surf

Last reported at 2014-Oct-11 19:32 UTC. Time now 2014-Oct-20 11:22 UTC.
Position N 34°05' E 134°54'.
Warning: this ship's position is 8 days out of date.

Length 163 m; draft 9.6 m.

Type: Ship. MMSI: 319545000.

Date/timePositionNaut miles runAvg speedWind from/ knotsBaromVisibWave heightAir tempDewpointWater temp
2014-Oct-11 19:32N 34°05' E 134°54'1312.3
2014-Oct-11 18:28N 34°18' E 134°58'1314.1
2014-Oct-11 17:33N 34°28' E 135°08'1413.7
2014-Oct-11 16:33N 34°39' E 135°18'0 0.4
2014-Oct-11 15:33N 34°39' E 135°18'0 0.0
2014-Oct-11 14:27N 34°39' E 135°18'0 0.0
2014-Oct-11 13:21N 34°39' E 135°18'0 0.0
2014-Oct-11 12:27N 34°39' E 135°18'0 0.0
2014-Oct-11 11:33N 34°39' E 135°18'0 0.0
2014-Oct-11 10:33N 34°39' E 135°18'0 0.0
2014-Oct-11 09:15N 34°39' E 135°18'0 0.0
2014-Oct-11 08:27N 34°39' E 135°18'0 0.0
2014-Oct-11 07:21N 34°39' E 135°18'0 0.0
2014-Oct-11 05:33N 34°39' E 135°18'0 0.0
2014-Oct-11 04:33N 34°39' E 135°18'0 0.0
2014-Oct-11 03:33N 34°39' E 135°18'0 0.0
2014-Oct-11 02:33N 34°39' E 135°18'0 0.0
2014-Oct-11 01:33N 34°39' E 135°18'0 0.0
2014-Oct-11 00:33N 34°39' E 135°18'0 0.0
2014-Oct-10 23:27N 34°39' E 135°18'0 0.1
2014-Oct-10 22:33N 34°39' E 135°18'0 0.0
2014-Oct-10 21:33N 34°39' E 135°18'0 0.1
2014-Oct-10 20:33N 34°39' E 135°18'0 0.0
2014-Oct-10 19:33N 34°39' E 135°18'0 0.0
2014-Oct-10 18:33N 34°39' E 135°18'0 0.0
2014-Oct-10 17:33N 34°39' E 135°18'0 0.0
2014-Oct-10 16:33N 34°39' E 135°18'0 0.0
2014-Oct-10 15:33N 34°39' E 135°18'0 0.0
2014-Oct-10 14:27N 34°39' E 135°18'0 0.0
2014-Oct-10 13:33N 34°39' E 135°18'0 0.0
2014-Oct-10 12:33N 34°39' E 135°18'0 0.0
2014-Oct-10 11:21N 34°39' E 135°18'0 0.0
2014-Oct-10 10:33N 34°39' E 135°18'0 0.0
2014-Oct-10 09:27N 34°39' E 135°18'0 0.0
2014-Oct-10 08:33N 34°39' E 135°18'0 0.1
2014-Oct-10 07:09N 34°39' E 135°18'0 0.2
2014-Oct-10 06:33N 34°39' E 135°18'0 0.0
2014-Oct-10 05:27N 34°39' E 135°18'0 0.1
2014-Oct-10 04:27N 34°39' E 135°18'0 0.0
2014-Oct-10 03:33N 34°39' E 135°18'0 0.1
2014-Oct-10 02:33N 34°39' E 135°18'6 6.0
2014-Oct-10 01:33N 34°37' E 135°11'1 1.3
2014-Oct-10 00:27N 34°38' E 135°09'0 0.0
2014-Oct-09 23:27N 34°38' E 135°09'0 0.0
2014-Oct-09 22:33N 34°38' E 135°09'0 0.0
2014-Oct-09 21:21N 34°38' E 135°09'0 0.0
2014-Oct-09 20:27N 34°38' E 135°09'0 0.0
2014-Oct-09 19:15N 34°38' E 135°09'0 0.2
2014-Oct-09 18:27N 34°38' E 135°10'0 0.1
2014-Oct-09 17:33N 34°38' E 135°10'0 0.0
2014-Oct-09 16:33N 34°38' E 135°10'0 0.1
2014-Oct-09 15:33N 34°38' E 135°10'0 0.1
2014-Oct-09 14:33N 34°38' E 135°09'0 0.0
2014-Oct-09 13:27N 34°38' E 135°09'1 1.3
2014-Oct-09 12:34N 34°37' E 135°09'1312.7
2014-Oct-09 11:33N 34°25' E 135°04'1613.3
2014-Oct-09 10:23N 34°10' E 134°60'8 9.6
2014-Oct-09 09:33N 34°02' E 134°60'  

Dump ship's entire track history